createdAt,value
2023-04-12T00:00:44.919Z,4.80
2023-04-12T00:01:44.941Z,5.30
2023-04-12T00:02:45.187Z,3.80
2023-04-12T00:03:45.021Z,4.60
2023-04-12T00:04:44.995Z,3.90
2023-04-12T00:05:44.877Z,5.00
2023-04-12T00:06:44.866Z,3.60
2023-04-12T00:07:44.842Z,4.80
2023-04-12T00:08:44.847Z,3.90
2023-04-12T00:09:44.824Z,4.80
2023-04-12T00:10:44.809Z,3.30
2023-04-12T00:11:44.795Z,5.70
2023-04-12T00:12:44.796Z,5.40
2023-04-12T00:13:44.795Z,5.90
2023-04-12T00:14:44.765Z,4.30
2023-04-12T00:15:44.772Z,4.50
2023-04-12T00:16:44.782Z,4.00
2023-04-12T00:17:44.846Z,6.00
2023-04-12T00:18:44.738Z,5.10
2023-04-12T00:19:44.751Z,4.20
2023-04-12T00:20:44.701Z,5.10
2023-04-12T00:21:44.714Z,4.90
2023-04-12T00:22:44.684Z,3.30
2023-04-12T00:23:44.696Z,4.80
2023-04-12T00:24:44.674Z,4.60
2023-04-12T00:25:44.647Z,4.60
2023-04-12T00:26:44.643Z,4.80
2023-04-12T00:27:44.637Z,5.10
2023-04-12T00:28:44.620Z,5.40
2023-04-12T00:29:44.629Z,4.20
2023-04-12T00:30:44.601Z,4.60
2023-04-12T00:31:44.666Z,5.10
2023-04-12T00:32:44.670Z,2.70
2023-04-12T00:33:44.579Z,3.90
2023-04-12T00:34:44.656Z,3.80
2023-04-12T00:35:44.609Z,5.00
2023-04-12T00:36:44.547Z,6.40
2023-04-12T00:37:44.519Z,5.50
2023-04-12T00:38:44.517Z,4.80
2023-04-12T00:39:44.517Z,8.30
2023-04-12T00:40:44.504Z,5.40
2023-04-12T00:41:44.490Z,3.30
2023-04-12T00:42:51.458Z,5.00
2023-04-12T00:43:44.447Z,4.40
2023-04-12T00:44:44.436Z,5.10
2023-04-12T00:45:44.501Z,5.00
2023-04-12T00:46:44.467Z,5.30
2023-04-12T00:47:44.449Z,4.00
2023-04-12T00:48:44.389Z,3.90
2023-04-12T00:49:44.393Z,4.30
2023-04-12T00:50:44.406Z,5.10
2023-04-12T00:51:44.364Z,7.90
2023-04-12T00:52:44.378Z,3.50
2023-04-12T00:53:44.353Z,4.40
2023-04-12T00:54:44.327Z,5.20
2023-04-12T00:55:44.334Z,4.20
2023-04-12T00:56:44.311Z,4.90
2023-04-12T00:57:44.302Z,5.20
2023-04-12T00:58:44.279Z,5.40
2023-04-12T00:59:44.287Z,4.60
2023-04-12T01:00:44.367Z,4.80
2023-04-12T01:01:44.377Z,4.50
2023-04-12T01:02:44.382Z,5.10
2023-04-12T01:03:44.310Z,5.20
2023-04-12T01:04:44.211Z,5.00
2023-04-12T01:05:44.218Z,5.40
2023-04-12T01:06:44.211Z,5.10
2023-04-12T01:07:44.183Z,4.60
2023-04-12T01:08:44.177Z,3.50
2023-04-12T01:09:44.160Z,4.40
2023-04-12T01:10:44.146Z,4.30
2023-04-12T01:11:44.140Z,4.80
2023-04-12T01:12:44.125Z,6.00
2023-04-12T01:13:44.128Z,4.80
2023-04-12T01:14:44.111Z,4.00
2023-04-12T01:15:44.096Z,4.60
2023-04-12T01:16:44.158Z,5.60
2023-04-12T01:17:44.183Z,3.80
2023-04-12T01:18:44.055Z,5.90
2023-04-12T01:19:44.048Z,4.60
2023-04-12T01:20:44.036Z,4.40
2023-04-12T01:21:44.032Z,3.80
2023-04-12T01:22:44.029Z,4.20
2023-04-12T01:23:44.010Z,3.70
2023-04-12T01:24:44.006Z,4.90
2023-04-12T01:25:44.005Z,4.90
2023-04-12T01:26:43.973Z,5.20
2023-04-12T01:27:43.959Z,3.70
2023-04-12T01:28:43.946Z,3.60
2023-04-12T01:29:43.947Z,3.60
2023-04-12T01:30:43.936Z,5.70
2023-04-12T01:31:44.003Z,4.60
2023-04-12T01:32:43.940Z,7.50
2023-04-12T01:33:43.896Z,4.30
2023-04-12T01:34:43.880Z,5.20
2023-04-12T01:35:43.893Z,5.10
2023-04-12T01:36:43.857Z,4.50
2023-04-12T01:37:43.868Z,4.40
2023-04-12T01:38:43.851Z,4.30
2023-04-12T01:39:43.828Z,3.00
2023-04-12T01:40:43.828Z,3.70
2023-04-12T01:41:43.822Z,3.80
2023-04-12T01:42:43.804Z,4.80
2023-04-12T01:43:43.784Z,5.70
2023-04-12T01:44:43.768Z,2.90
2023-04-12T01:45:43.800Z,6.70
2023-04-12T01:46:43.754Z,4.90
2023-04-12T01:47:43.789Z,4.70
2023-04-12T01:48:43.736Z,5.40
2023-04-12T01:49:43.717Z,4.20
2023-04-12T01:50:43.728Z,4.40
2023-04-12T01:51:43.720Z,5.10
2023-04-12T01:52:43.705Z,4.10
2023-04-12T01:53:43.672Z,4.50
2023-04-12T01:54:43.689Z,4.50
2023-04-12T01:55:43.653Z,5.50
2023-04-12T01:56:43.641Z,4.30
2023-04-12T01:57:43.638Z,3.50
2023-04-12T01:58:43.620Z,4.70
2023-04-12T01:59:43.613Z,6.10
2023-04-12T02:00:43.677Z,4.60
2023-04-12T02:01:43.682Z,5.80
2023-04-12T02:02:43.750Z,5.10
2023-04-12T02:03:43.695Z,4.40
2023-04-12T02:04:43.553Z,3.80
2023-04-12T02:05:43.542Z,2.90
2023-04-12T02:06:43.560Z,5.90
2023-04-12T02:07:43.533Z,4.60
2023-04-12T02:08:43.509Z,4.80
2023-04-12T02:09:43.498Z,5.00
2023-04-12T02:10:43.505Z,4.50
2023-04-12T02:11:43.486Z,4.00
2023-04-12T02:12:43.465Z,4.50
2023-04-12T02:13:43.464Z,5.90
2023-04-12T02:14:43.455Z,4.20
2023-04-12T02:15:43.426Z,5.40
2023-04-12T02:16:43.504Z,4.90
2023-04-12T02:17:43.441Z,3.40
2023-04-12T02:18:43.412Z,3.90
2023-04-12T02:19:43.381Z,3.80
2023-04-12T02:20:43.381Z,4.60
2023-04-12T02:21:43.408Z,5.80
2023-04-12T02:22:43.351Z,3.90
2023-04-12T02:23:43.337Z,3.80
2023-04-12T02:24:43.349Z,3.50
2023-04-12T02:25:43.332Z,5.00
2023-04-12T02:26:43.341Z,8.00
2023-04-12T02:27:43.301Z,5.50
2023-04-12T02:28:43.285Z,5.50
2023-04-12T02:29:43.271Z,6.50
2023-04-12T02:30:43.285Z,5.10
2023-04-12T02:31:43.266Z,3.50
2023-04-12T02:32:43.295Z,3.80
2023-04-12T02:33:43.243Z,4.50
2023-04-12T02:34:43.219Z,3.70
2023-04-12T02:35:43.252Z,3.80
2023-04-12T02:36:43.214Z,3.30
2023-04-12T02:37:43.189Z,3.70
2023-04-12T02:38:43.177Z,4.40
2023-04-12T02:39:43.185Z,4.10
2023-04-12T02:40:43.160Z,3.50
2023-04-12T02:41:43.139Z,3.10
2023-04-12T02:42:43.159Z,10.20
2023-04-12T02:43:50.631Z,3.50
2023-04-12T02:44:43.106Z,4.70
2023-04-12T02:45:43.132Z,5.30
2023-04-12T02:46:43.097Z,3.80
2023-04-12T02:47:43.099Z,4.00
2023-04-12T02:48:43.075Z,4.20
2023-04-12T02:49:43.049Z,4.80
2023-04-12T02:50:43.048Z,4.20
2023-04-12T02:51:43.053Z,4.60
2023-04-12T02:52:43.055Z,5.10
2023-04-12T02:53:43.006Z,4.70
2023-04-12T02:54:43.006Z,3.60
2023-04-12T02:55:42.981Z,3.60
2023-04-12T02:56:42.976Z,4.10
2023-04-12T02:57:42.988Z,4.60
2023-04-12T02:58:42.978Z,3.50
2023-04-12T02:59:42.943Z,3.00
2023-04-12T03:00:42.946Z,3.80
2023-04-12T03:01:42.971Z,3.90
2023-04-12T03:02:43.035Z,3.20
2023-04-12T03:03:42.951Z,3.70
2023-04-12T03:04:42.885Z,4.00
2023-04-12T03:05:42.874Z,3.30
2023-04-12T03:06:42.874Z,3.50
2023-04-12T03:07:42.865Z,5.10
2023-04-12T03:08:42.843Z,5.50
2023-04-12T03:09:42.855Z,3.80
2023-04-12T03:10:42.840Z,4.40
2023-04-12T03:11:42.809Z,3.00
2023-04-12T03:12:42.810Z,3.40
2023-04-12T03:13:42.806Z,4.90
2023-04-12T03:14:42.798Z,3.80
2023-04-12T03:15:42.818Z,3.70
2023-04-12T03:16:42.756Z,5.00
2023-04-12T03:17:42.777Z,3.30
2023-04-12T03:18:42.732Z,3.80
2023-04-12T03:19:42.716Z,6.00
2023-04-12T03:20:44.733Z,4.80
2023-04-12T03:21:42.708Z,3.90
2023-04-12T03:22:42.691Z,3.40
2023-04-12T03:23:42.677Z,3.50
2023-04-12T03:24:42.664Z,5.10
2023-04-12T03:25:42.652Z,3.80
2023-04-12T03:26:42.656Z,6.30
2023-04-12T03:27:42.627Z,2.90
2023-04-12T03:28:42.626Z,3.90
2023-04-12T03:29:42.608Z,4.50
2023-04-12T03:30:42.690Z,3.30
2023-04-12T03:31:42.666Z,4.80
2023-04-12T03:32:42.627Z,4.40
2023-04-12T03:33:42.563Z,5.80
2023-04-12T03:34:42.553Z,2.50
2023-04-12T03:35:42.700Z,4.60
2023-04-12T03:36:42.617Z,3.40
2023-04-12T03:37:42.526Z,3.60
2023-04-12T03:38:42.509Z,5.20
2023-04-12T03:39:42.493Z,4.60
2023-04-12T03:40:42.498Z,3.20
2023-04-12T03:41:42.486Z,3.40
2023-04-12T03:42:42.462Z,5.10
2023-04-12T03:43:42.448Z,3.70
2023-04-12T03:44:42.440Z,3.60
2023-04-12T03:45:42.443Z,4.10
2023-04-12T03:46:42.482Z,4.60
2023-04-12T03:47:42.415Z,3.20
2023-04-12T03:48:42.395Z,3.60
2023-04-12T03:49:42.382Z,3.20
2023-04-12T03:50:42.395Z,3.70
2023-04-12T03:51:42.382Z,4.40
2023-04-12T03:52:42.383Z,6.40
2023-04-12T03:53:42.338Z,4.60
2023-04-12T03:54:42.346Z,2.90
2023-04-12T03:55:42.351Z,3.20
2023-04-12T03:56:43.215Z,3.50
2023-04-12T03:57:42.311Z,4.00
2023-04-12T03:58:42.298Z,2.80
2023-04-12T03:59:42.277Z,3.60
2023-04-12T04:00:42.282Z,3.90
2023-04-12T04:01:42.262Z,4.00
2023-04-12T04:02:44.345Z,3.90
2023-04-12T04:03:42.441Z,3.60
2023-04-12T04:04:42.298Z,4.80
2023-04-12T04:05:42.207Z,4.70
2023-04-12T04:06:42.199Z,2.70
2023-04-12T04:07:42.200Z,4.20
2023-04-12T04:08:42.190Z,6.50
2023-04-12T04:09:42.182Z,3.80
2023-04-12T04:10:42.164Z,3.20
2023-04-12T04:11:42.151Z,4.00
2023-04-12T04:12:42.144Z,4.00
2023-04-12T04:13:42.120Z,4.00
2023-04-12T04:14:42.138Z,5.20
2023-04-12T04:15:42.103Z,4.20
2023-04-12T04:16:42.221Z,4.20
2023-04-12T04:17:42.128Z,3.30
2023-04-12T04:18:42.093Z,3.30
2023-04-12T04:19:42.053Z,4.20
2023-04-12T04:20:42.056Z,4.70
2023-04-12T04:21:42.047Z,2.50
2023-04-12T04:22:42.022Z,3.70
2023-04-12T04:23:42.014Z,6.00
2023-04-12T04:24:42.015Z,4.20
2023-04-12T04:25:42.002Z,3.70
2023-04-12T04:26:41.980Z,3.20
2023-04-12T04:27:41.967Z,3.30
2023-04-12T04:28:41.982Z,2.80
2023-04-12T04:29:41.942Z,3.50
2023-04-12T04:30:41.941Z,3.00
2023-04-12T04:31:42.012Z,4.30
2023-04-12T04:32:41.985Z,2.50
2023-04-12T04:33:41.903Z,3.00
2023-04-12T04:34:41.926Z,4.00
2023-04-12T04:35:41.929Z,2.90
2023-04-12T04:36:41.874Z,6.90
2023-04-12T04:37:41.857Z,3.10
2023-04-12T04:38:41.855Z,3.50
2023-04-12T04:39:41.848Z,4.60
2023-04-12T04:40:41.849Z,4.90
2023-04-12T04:41:41.811Z,2.90
2023-04-12T04:42:41.819Z,4.10
2023-04-12T04:43:41.791Z,2.90
2023-04-12T04:44:49.298Z,2.40
2023-04-12T04:45:41.832Z,2.90
2023-04-12T04:46:41.760Z,3.80
2023-04-12T04:47:41.776Z,3.40
2023-04-12T04:48:41.739Z,3.10
2023-04-12T04:49:41.724Z,3.40
2023-04-12T04:50:41.734Z,3.30
2023-04-12T04:51:41.717Z,3.40
2023-04-12T04:52:41.699Z,3.80
2023-04-12T04:53:41.695Z,3.60
2023-04-12T04:54:41.680Z,2.40
2023-04-12T04:55:41.660Z,3.30
2023-04-12T04:56:41.657Z,3.40
2023-04-12T04:57:41.654Z,3.50
2023-04-12T04:58:41.647Z,3.40
2023-04-12T04:59:41.628Z,3.20
2023-04-12T05:00:41.610Z,5.20
2023-04-12T05:01:41.691Z,4.30
2023-04-12T05:02:41.807Z,3.50
2023-04-12T05:03:41.637Z,3.30
2023-04-12T05:04:41.885Z,4.60
2023-04-12T05:05:41.560Z,3.50
2023-04-12T05:06:41.584Z,3.30
2023-04-12T05:07:41.536Z,3.00
2023-04-12T05:08:41.524Z,5.80
2023-04-12T05:09:41.519Z,9.80
2023-04-12T05:10:41.501Z,11.40
2023-04-12T05:11:41.483Z,8.30
2023-04-12T05:12:41.474Z,5.80
2023-04-12T05:13:41.466Z,6.70
2023-04-12T05:14:47.250Z,3.10
2023-04-12T05:15:41.446Z,3.90
2023-04-12T05:16:41.492Z,5.80
2023-04-12T05:17:41.425Z,4.60
2023-04-12T05:18:41.423Z,2.70
2023-04-12T05:19:41.417Z,4.00
2023-04-12T05:20:41.399Z,2.60
2023-04-12T05:21:41.375Z,3.60
2023-04-12T05:22:41.384Z,3.00
2023-04-12T05:23:41.360Z,3.90
2023-04-12T05:24:41.342Z,3.10
2023-04-12T05:25:41.339Z,3.50
2023-04-12T05:26:41.318Z,4.80
2023-04-12T05:27:41.311Z,6.30
2023-04-12T05:28:41.305Z,5.00
2023-04-12T05:29:41.285Z,4.30
2023-04-12T05:30:41.308Z,4.80
2023-04-12T05:31:41.262Z,3.40
2023-04-12T05:32:41.271Z,4.90
2023-04-12T05:33:41.245Z,2.80
2023-04-12T05:34:41.238Z,2.40
2023-04-12T05:35:41.248Z,3.50
2023-04-12T05:36:41.214Z,2.30
2023-04-12T05:37:41.198Z,3.60
2023-04-12T05:38:41.207Z,3.20
2023-04-12T05:39:41.179Z,3.60
2023-04-12T05:40:41.181Z,2.40
2023-04-12T05:41:41.168Z,3.90
2023-04-12T05:42:41.154Z,4.00
2023-04-12T05:43:41.145Z,3.00
2023-04-12T05:44:41.122Z,3.20
2023-04-12T05:45:41.121Z,3.00
2023-04-12T05:46:41.259Z,2.90
2023-04-12T05:47:41.104Z,4.20
2023-04-12T05:48:41.109Z,2.90
2023-04-12T05:49:41.080Z,3.10
2023-04-12T05:50:41.070Z,3.30
2023-04-12T05:51:41.796Z,2.70
2023-04-12T05:52:41.058Z,2.20
2023-04-12T05:53:41.034Z,3.50
2023-04-12T05:54:41.823Z,2.80
2023-04-12T05:55:41.004Z,2.30
2023-04-12T05:56:41.009Z,2.80
2023-04-12T05:57:40.991Z,2.90
2023-04-12T05:58:40.971Z,4.30
2023-04-12T05:59:40.968Z,2.90
2023-04-12T06:00:40.951Z,2.30
2023-04-12T06:01:40.948Z,3.80
2023-04-12T06:02:41.126Z,3.40
2023-04-12T06:03:41.083Z,4.30
2023-04-12T06:04:50.214Z,2.40
2023-04-12T06:05:42.005Z,2.20
2023-04-12T06:06:40.881Z,2.20
2023-04-12T06:07:40.880Z,3.00
2023-04-12T06:08:40.857Z,2.40
2023-04-12T06:09:40.864Z,2.30
2023-04-12T06:10:40.857Z,2.70
2023-04-12T06:11:40.828Z,2.60
2023-04-12T06:12:40.814Z,2.80
2023-04-12T06:13:40.810Z,2.50
2023-04-12T06:14:40.795Z,1.60
2023-04-12T06:15:40.862Z,3.30
2023-04-12T06:16:42.080Z,3.70
2023-04-12T06:17:40.824Z,3.20
2023-04-12T06:18:40.758Z,3.80
2023-04-12T06:19:40.747Z,2.40
2023-04-12T06:20:40.768Z,1.90
2023-04-12T06:21:40.717Z,4.40
2023-04-12T06:22:40.704Z,2.40
2023-04-12T06:23:40.713Z,3.40
2023-04-12T06:24:40.683Z,3.90
2023-04-12T06:25:40.673Z,2.80
2023-04-12T06:26:40.697Z,2.20
2023-04-12T06:27:40.659Z,3.80
2023-04-12T06:28:40.646Z,2.40
2023-04-12T06:29:40.628Z,3.40
2023-04-12T06:30:40.693Z,2.40
2023-04-12T06:31:40.644Z,2.50
2023-04-12T06:32:40.611Z,2.10
2023-04-12T06:33:40.903Z,2.50
2023-04-12T06:34:40.575Z,2.30
2023-04-12T06:35:40.578Z,2.10
2023-04-12T06:36:40.543Z,1.60
2023-04-12T06:37:40.548Z,3.60
2023-04-12T06:38:40.582Z,2.30
2023-04-12T06:39:40.514Z,2.30
2023-04-12T06:40:40.497Z,2.40
2023-04-12T06:41:40.487Z,4.00
2023-04-12T06:42:40.526Z,2.30
2023-04-12T06:43:40.482Z,1.60
2023-04-12T06:44:40.465Z,3.00
2023-04-12T06:45:47.960Z,2.20
2023-04-12T06:46:40.495Z,2.40
2023-04-12T06:47:40.482Z,3.30
2023-04-12T06:48:41.340Z,3.60
2023-04-12T06:49:40.408Z,2.40
2023-04-12T06:50:40.390Z,2.20
2023-04-12T06:51:40.386Z,3.00
2023-04-12T06:52:40.369Z,2.00
2023-04-12T06:53:40.365Z,2.40
2023-04-12T06:54:40.335Z,3.40
2023-04-12T06:55:40.337Z,2.20
2023-04-12T06:56:40.317Z,1.90
2023-04-12T06:57:40.320Z,2.00
2023-04-12T06:58:40.330Z,2.60
2023-04-12T06:59:40.310Z,2.40
2023-04-12T07:00:40.297Z,2.20
2023-04-12T07:01:41.373Z,3.30
2023-04-12T07:02:40.517Z,3.00
2023-04-12T07:03:40.437Z,2.10
2023-04-12T07:04:40.227Z,3.50
2023-04-12T07:05:40.233Z,2.50
2023-04-12T07:06:40.207Z,2.30
2023-04-12T07:07:40.212Z,3.20
2023-04-12T07:08:40.185Z,2.00
2023-04-12T07:09:40.176Z,2.50
2023-04-12T07:10:40.172Z,3.40
2023-04-12T07:11:40.153Z,2.50
2023-04-12T07:12:40.147Z,3.10
2023-04-12T07:13:40.148Z,3.90
2023-04-12T07:14:40.161Z,3.00
2023-04-12T07:15:40.115Z,2.10
2023-04-12T07:16:40.128Z,3.20
2023-04-12T07:17:40.119Z,2.50
2023-04-12T07:18:40.134Z,2.20
2023-04-12T07:19:40.078Z,3.00
2023-04-12T07:20:40.064Z,2.90
2023-04-12T07:21:40.054Z,3.50
2023-04-12T07:22:40.047Z,4.60
2023-04-12T07:23:40.046Z,2.20
2023-04-12T07:24:40.018Z,3.10
2023-04-12T07:25:40.000Z,2.80
2023-04-12T07:26:39.986Z,3.30
2023-04-12T07:27:39.986Z,2.60
2023-04-12T07:28:39.979Z,4.10
2023-04-12T07:29:39.964Z,3.10
2023-04-12T07:30:39.962Z,3.70
2023-04-12T07:31:39.938Z,3.00
2023-04-12T07:32:40.045Z,3.20
2023-04-12T07:33:42.219Z,2.30
2023-04-12T07:34:40.132Z,2.40
2023-04-12T07:35:39.936Z,2.80
2023-04-12T07:36:39.887Z,2.80
2023-04-12T07:37:39.876Z,2.60
2023-04-12T07:38:39.873Z,2.20
2023-04-12T07:39:39.912Z,3.20
2023-04-12T07:40:39.831Z,2.90
2023-04-12T07:41:39.828Z,3.30
2023-04-12T07:42:39.825Z,4.10
2023-04-12T07:43:39.820Z,3.00
2023-04-12T07:44:39.793Z,4.40
2023-04-12T07:45:39.815Z,3.30
2023-04-12T07:46:39.986Z,3.20
2023-04-12T07:47:39.797Z,2.90
2023-04-12T07:48:39.751Z,2.80
2023-04-12T07:49:39.747Z,2.70
2023-04-12T07:50:39.745Z,3.40
2023-04-12T07:51:39.723Z,3.90
2023-04-12T07:52:39.701Z,2.80
2023-04-12T07:53:39.693Z,2.70
2023-04-12T07:54:39.681Z,2.70
2023-04-12T07:55:39.679Z,3.60
2023-04-12T07:56:39.659Z,3.00
2023-04-12T07:57:39.651Z,4.00
2023-04-12T07:58:39.648Z,2.40
2023-04-12T07:59:39.627Z,2.20
2023-04-12T08:00:39.625Z,2.70
2023-04-12T08:01:39.657Z,1.90
2023-04-12T08:02:39.951Z,2.50
2023-04-12T08:03:39.625Z,2.50
2023-04-12T08:04:39.576Z,1.90
2023-04-12T08:05:39.623Z,1.90
2023-04-12T08:06:39.544Z,2.40
2023-04-12T08:07:39.538Z,2.60
2023-04-12T08:08:39.540Z,2.10
2023-04-12T08:09:39.518Z,2.50
2023-04-12T08:10:39.529Z,2.40
2023-04-12T08:11:39.492Z,2.40
2023-04-12T08:12:39.491Z,4.30
2023-04-12T08:13:39.478Z,2.60
2023-04-12T08:14:40.855Z,4.00
2023-04-12T08:15:39.459Z,2.90
2023-04-12T08:16:39.443Z,2.40
2023-04-12T08:17:39.484Z,3.30
2023-04-12T08:18:39.434Z,2.90
2023-04-12T08:19:39.413Z,2.90
2023-04-12T08:20:39.397Z,2.80
2023-04-12T08:21:39.399Z,2.40
2023-04-12T08:22:39.371Z,2.10
2023-04-12T08:23:39.358Z,1.90
2023-04-12T08:24:39.344Z,3.80
2023-04-12T08:25:39.345Z,2.10
2023-04-12T08:26:39.335Z,1.60
2023-04-12T08:27:39.314Z,1.80
2023-04-12T08:28:39.988Z,1.90
2023-04-12T08:29:39.291Z,2.40
2023-04-12T08:30:39.275Z,1.70
2023-04-12T08:31:39.322Z,1.90
2023-04-12T08:32:39.330Z,2.00
2023-04-12T08:33:39.246Z,1.70
2023-04-12T08:34:39.262Z,1.60
2023-04-12T08:35:39.248Z,2.80
2023-04-12T08:36:39.214Z,3.30
2023-04-12T08:37:39.222Z,1.90
2023-04-12T08:38:45.476Z,2.90
2023-04-12T08:39:39.186Z,2.50
2023-04-12T08:40:39.185Z,1.60
2023-04-12T08:41:39.305Z,2.30
2023-04-12T08:42:39.149Z,2.30
2023-04-12T08:43:39.138Z,2.00
2023-04-12T08:44:39.140Z,1.90
2023-04-12T08:45:39.120Z,3.00
2023-04-12T08:46:46.649Z,2.00
2023-04-12T08:47:39.154Z,1.80
2023-04-12T08:48:39.078Z,1.90
2023-04-12T08:49:39.083Z,1.70
2023-04-12T08:50:39.130Z,1.90
2023-04-12T08:51:39.052Z,2.70
2023-04-12T08:52:39.040Z,1.70
2023-04-12T08:53:39.045Z,1.90
2023-04-12T08:54:39.012Z,1.80
2023-04-12T08:55:39.006Z,2.00
2023-04-12T08:56:38.992Z,1.80
2023-04-12T08:57:38.992Z,1.90
2023-04-12T08:58:39.002Z,2.70
2023-04-12T08:59:39.000Z,26.10
2023-04-12T09:00:38.950Z,5.10
2023-04-12T09:01:39.009Z,2.70
2023-04-12T09:02:39.135Z,12.40
2023-04-12T09:03:39.194Z,6.60
2023-04-12T09:04:38.981Z,4.60
2023-04-12T09:05:38.897Z,4.20
2023-04-12T09:06:38.912Z,2.30
2023-04-12T09:07:38.878Z,2.90
2023-04-12T09:08:38.857Z,3.50
2023-04-12T09:09:38.867Z,1.60
2023-04-12T09:10:38.842Z,1.90
2023-04-12T09:11:38.824Z,1.20
2023-04-12T09:12:38.838Z,1.40
2023-04-12T09:13:38.811Z,1.50
2023-04-12T09:14:38.813Z,1.60
2023-04-12T09:15:38.786Z,1.80
2023-04-12T09:16:38.843Z,2.30
2023-04-12T09:17:38.850Z,1.40
2023-04-12T09:18:38.752Z,1.30
2023-04-12T09:19:38.740Z,1.40
2023-04-12T09:20:38.766Z,1.20
2023-04-12T09:21:38.736Z,2.30
2023-04-12T09:22:38.733Z,1.50
2023-04-12T09:23:38.713Z,1.30
2023-04-12T09:24:38.688Z,1.40
2023-04-12T09:25:38.686Z,1.50
2023-04-12T09:26:38.664Z,1.20
2023-04-12T09:27:38.663Z,1.60
2023-04-12T09:28:38.654Z,1.50
2023-04-12T09:29:38.630Z,2.10
2023-04-12T09:30:38.609Z,1.10
2023-04-12T09:31:38.730Z,1.50
2023-04-12T09:32:38.684Z,1.40
2023-04-12T09:33:38.605Z,1.40
2023-04-12T09:34:38.584Z,1.10
2023-04-12T09:35:38.689Z,1.20
2023-04-12T09:36:38.569Z,1.20
2023-04-12T09:37:38.553Z,1.00
2023-04-12T09:38:38.544Z,1.40
2023-04-12T09:39:40.173Z,1.00
2023-04-12T09:40:38.511Z,1.70
2023-04-12T09:41:38.487Z,1.70
2023-04-12T09:42:38.525Z,1.90
2023-04-12T09:43:38.489Z,1.10
2023-04-12T09:44:38.478Z,1.70
2023-04-12T09:45:38.465Z,1.30
2023-04-12T09:46:38.521Z,2.00
2023-04-12T09:47:38.507Z,1.10
2023-04-12T09:48:38.413Z,1.60
2023-04-12T09:49:38.397Z,1.60
2023-04-12T09:50:38.396Z,1.10
2023-04-12T09:51:38.395Z,1.70
2023-04-12T09:52:38.422Z,1.80
2023-04-12T09:53:38.391Z,1.00
2023-04-12T09:54:38.384Z,1.20
2023-04-12T09:55:38.349Z,1.10
2023-04-12T09:56:38.337Z,1.10
2023-04-12T09:57:38.337Z,1.40
2023-04-12T09:58:38.308Z,1.00
2023-04-12T09:59:38.300Z,1.50
2023-04-12T10:00:38.276Z,0.90
2023-04-12T10:01:38.333Z,1.20
2023-04-12T10:02:38.420Z,1.20
2023-04-12T10:03:38.356Z,1.10
2023-04-12T10:04:38.393Z,0.80
2023-04-12T10:05:38.379Z,0.90
2023-04-12T10:06:38.218Z,1.80
2023-04-12T10:07:38.224Z,1.10
2023-04-12T10:08:38.182Z,0.90
2023-04-12T10:09:38.187Z,0.90
2023-04-12T10:10:38.205Z,0.70
2023-04-12T10:11:38.217Z,0.90
2023-04-12T10:12:38.149Z,0.80
2023-04-12T10:13:38.137Z,0.90
2023-04-12T10:14:38.115Z,0.90
2023-04-12T10:15:38.159Z,0.80
2023-04-12T10:16:38.151Z,0.90
2023-04-12T10:17:38.099Z,0.70
2023-04-12T10:18:38.087Z,1.00
2023-04-12T10:19:38.073Z,1.00
2023-04-12T10:20:38.091Z,0.80
2023-04-12T10:21:38.054Z,0.70
2023-04-12T10:22:38.070Z,0.70
2023-04-12T10:23:38.058Z,2.40
2023-04-12T10:24:38.005Z,1.20
2023-04-12T10:25:38.002Z,0.90
2023-04-12T10:26:38.008Z,0.70
2023-04-12T10:27:37.988Z,0.80
2023-04-12T10:28:38.026Z,0.80
2023-04-12T10:29:37.977Z,0.80
2023-04-12T10:30:37.935Z,1.00
2023-04-12T10:31:37.971Z,1.70
2023-04-12T10:32:37.947Z,0.80
2023-04-12T10:33:37.916Z,0.80
2023-04-12T10:34:37.903Z,1.00
2023-04-12T10:35:37.922Z,1.50
2023-04-12T10:36:37.873Z,0.80
2023-04-12T10:37:37.875Z,1.00
2023-04-12T10:38:37.858Z,0.80
2023-04-12T10:39:37.863Z,0.70
2023-04-12T10:40:37.838Z,0.80
2023-04-12T10:41:37.848Z,0.70
2023-04-12T10:42:37.844Z,2.20
2023-04-12T10:43:37.856Z,1.00
2023-04-12T10:44:37.801Z,1.20
2023-04-12T10:45:37.769Z,0.60
2023-04-12T10:46:37.928Z,1.40
2023-04-12T10:47:45.611Z,0.80
2023-04-12T10:48:37.808Z,0.90
2023-04-12T10:49:37.720Z,0.70
2023-04-12T10:50:37.732Z,0.70
2023-04-12T10:51:37.781Z,0.70
2023-04-12T10:52:37.720Z,1.00
2023-04-12T10:53:37.682Z,0.80
2023-04-12T10:54:37.674Z,1.20
2023-04-12T10:55:37.659Z,0.80
2023-04-12T10:56:37.685Z,0.70
2023-04-12T10:57:37.659Z,1.40
2023-04-12T10:58:37.694Z,0.80
2023-04-12T10:59:47.295Z,0.80
2023-04-12T11:00:37.713Z,1.00
2023-04-12T11:01:38.818Z,0.80
2023-04-12T11:02:37.775Z,1.10
2023-04-12T11:03:37.813Z,0.80
2023-04-12T11:04:37.703Z,0.80
2023-04-12T11:05:37.672Z,0.80
2023-04-12T11:06:37.571Z,0.80
2023-04-12T11:07:37.524Z,0.80
2023-04-12T11:08:37.539Z,2.00
2023-04-12T11:09:37.507Z,0.70
2023-04-12T11:10:37.489Z,0.80
2023-04-12T11:11:37.478Z,0.80
2023-04-12T11:12:37.486Z,0.60
2023-04-12T11:13:37.451Z,0.80
2023-04-12T11:14:37.546Z,0.60
2023-04-12T11:15:37.469Z,0.60
2023-04-12T11:16:37.499Z,1.30
2023-04-12T11:17:37.932Z,0.90
2023-04-12T11:18:37.454Z,2.10
2023-04-12T11:19:37.394Z,1.00
2023-04-12T11:20:37.428Z,0.60
2023-04-12T11:21:37.405Z,0.80
2023-04-12T11:22:37.384Z,0.70
2023-04-12T11:23:37.356Z,0.60
2023-04-12T11:24:37.341Z,0.70
2023-04-12T11:25:37.333Z,0.70
2023-04-12T11:26:37.307Z,0.40
2023-04-12T11:27:37.306Z,0.60
2023-04-12T11:28:37.298Z,0.60
2023-04-12T11:29:37.287Z,0.60
2023-04-12T11:30:37.286Z,0.80
2023-04-12T11:31:37.282Z,0.80
2023-04-12T11:32:37.312Z,0.50
2023-04-12T11:33:37.352Z,1.20
2023-04-12T11:34:37.254Z,0.50
2023-04-12T11:35:37.222Z,0.60
2023-04-12T11:36:37.206Z,0.60
2023-04-12T11:37:37.219Z,0.70
2023-04-12T11:38:37.181Z,1.30
2023-04-12T11:39:37.160Z,0.60
2023-04-12T11:40:37.154Z,0.50
2023-04-12T11:41:37.145Z,0.70
2023-04-12T11:42:37.146Z,0.50
2023-04-12T11:43:37.117Z,0.70
2023-04-12T11:44:54.471Z,0.80
2023-04-12T11:45:38.142Z,0.70
2023-04-12T11:46:37.138Z,0.70
2023-04-12T11:47:37.110Z,0.50
2023-04-12T11:48:37.074Z,0.70
2023-04-12T11:49:37.050Z,0.60
2023-04-12T11:50:37.057Z,0.50
2023-04-12T11:51:37.043Z,0.60
2023-04-12T11:52:37.026Z,1.40
2023-04-12T11:53:37.008Z,0.70
2023-04-12T11:54:37.002Z,0.60
2023-04-12T11:55:36.998Z,0.80
2023-04-12T11:56:36.992Z,0.60
2023-04-12T11:57:36.967Z,1.00
2023-04-12T11:58:36.955Z,0.80
2023-04-12T11:59:36.944Z,0.70
2023-04-12T12:00:36.949Z,0.70
2023-04-12T12:01:36.926Z,0.70
2023-04-12T12:02:43.710Z,0.60
2023-04-12T12:03:38.158Z,0.80
2023-04-12T12:04:37.312Z,0.60
2023-04-12T12:05:37.580Z,0.80
2023-04-12T12:06:37.422Z,0.70
2023-04-12T12:07:36.862Z,1.10
2023-04-12T12:08:36.870Z,1.20
2023-04-12T12:09:36.838Z,3.30
2023-04-12T12:10:49.150Z,0.90
2023-04-12T12:11:36.816Z,0.90
2023-04-12T12:12:36.817Z,0.60
2023-04-12T12:13:37.200Z,0.40
2023-04-12T12:14:36.774Z,0.80
2023-04-12T12:15:36.789Z,1.50
2023-04-12T12:16:36.819Z,0.60
2023-04-12T12:17:36.759Z,0.60
2023-04-12T12:18:36.760Z,0.80
2023-04-12T12:19:36.726Z,0.50
2023-04-12T12:20:36.706Z,0.60
2023-04-12T12:21:36.696Z,0.70
2023-04-12T12:22:36.681Z,0.50
2023-04-12T12:23:36.680Z,1.50
2023-04-12T12:24:40.436Z,0.50
2023-04-12T12:25:37.646Z,0.50
2023-04-12T12:26:36.638Z,0.80
2023-04-12T12:27:36.741Z,0.90
2023-04-12T12:28:36.642Z,0.60
2023-04-12T12:29:37.541Z,1.00
2023-04-12T12:30:36.612Z,0.70
2023-04-12T12:31:36.644Z,0.70
2023-04-12T12:32:36.599Z,0.70
2023-04-12T12:33:45.955Z,0.80
2023-04-12T12:34:36.602Z,0.70
2023-04-12T12:35:36.552Z,0.70
2023-04-12T12:36:36.839Z,0.60
2023-04-12T12:37:36.526Z,0.70
2023-04-12T12:38:37.620Z,0.60
2023-04-12T12:39:36.501Z,1.70
2023-04-12T12:40:36.487Z,0.50
2023-04-12T12:41:36.535Z,1.00
2023-04-12T12:42:36.466Z,0.80
2023-04-12T12:43:36.471Z,1.30
2023-04-12T12:44:37.914Z,0.90
2023-04-12T12:45:36.463Z,0.80
2023-04-12T12:46:51.888Z,1.20
2023-04-12T12:47:37.511Z,1.10
2023-04-12T12:48:43.950Z,0.80
2023-04-12T12:49:36.397Z,1.00
2023-04-12T12:50:36.404Z,1.00
2023-04-12T12:51:36.372Z,0.90
2023-04-12T12:52:36.361Z,0.90
2023-04-12T12:53:36.351Z,1.40
2023-04-12T12:54:40.460Z,0.90
2023-04-12T12:55:37.317Z,1.20
2023-04-12T12:56:36.312Z,0.80
2023-04-12T12:57:36.305Z,0.90
2023-04-12T12:58:36.975Z,1.20
2023-04-12T12:59:36.293Z,0.90
2023-04-12T13:00:36.305Z,0.90
2023-04-12T13:01:36.305Z,0.90
2023-04-12T13:02:36.338Z,0.80
2023-04-12T13:03:36.499Z,1.10
2023-04-12T13:04:36.386Z,0.90
2023-04-12T13:05:36.231Z,0.90
2023-04-12T13:06:36.242Z,0.80
2023-04-12T13:07:36.192Z,1.10
2023-04-12T13:08:36.222Z,0.90
2023-04-12T13:09:36.172Z,1.40
2023-04-12T13:10:36.170Z,0.90
2023-04-12T13:11:36.146Z,1.00
2023-04-12T13:12:36.151Z,1.40
2023-04-12T13:13:36.117Z,1.20
2023-04-12T13:14:36.151Z,1.20
2023-04-12T13:15:36.104Z,0.90
2023-04-12T13:16:36.225Z,1.30
2023-04-12T13:17:36.127Z,1.10
2023-04-12T13:18:36.202Z,1.50